sensor_id;sensor_type;location;lat;lon;timestamp;P1;durP1;ratioP1;P2;durP2;ratioP2
43048;SDS011;28673;44.412;11.918;2023-04-01T00:00:58;9.68;;;4.88;;
43048;SDS011;28673;44.412;11.918;2023-04-01T00:03:25;5.50;;;3.38;;
43048;SDS011;28673;44.412;11.918;2023-04-01T00:05:52;6.13;;;3.88;;
43048;SDS011;28673;44.412;11.918;2023-04-01T00:08:20;5.05;;;3.78;;
43048;SDS011;28673;44.412;11.918;2023-04-01T00:10:46;4.32;;;3.55;;
43048;SDS011;28673;44.412;11.918;2023-04-01T00:13:12;8.98;;;4.13;;
43048;SDS011;28673;44.412;11.918;2023-04-01T00:15:39;7.55;;;4.15;;
43048;SDS011;28673;44.412;11.918;2023-04-01T00:18:05;6.63;;;3.97;;
43048;SDS011;28673;44.412;11.918;2023-04-01T00:20:31;7.47;;;3.88;;
43048;SDS011;28673;44.412;11.918;2023-04-01T00:22:57;5.88;;;3.75;;
43048;SDS011;28673;44.412;11.918;2023-04-01T00:25:23;5.40;;;3.17;;
43048;SDS011;28673;44.412;11.918;2023-04-01T00:27:49;10.10;;;3.95;;
43048;SDS011;28673;44.412;11.918;2023-04-01T00:30:15;7.95;;;3.47;;
43048;SDS011;28673;44.412;11.918;2023-04-01T00:32:41;4.10;;;3.25;;
43048;SDS011;28673;44.412;11.918;2023-04-01T00:35:07;5.28;;;2.58;;
43048;SDS011;28673;44.412;11.918;2023-04-01T00:37:37;6.10;;;2.97;;
43048;SDS011;28673;44.412;11.918;2023-04-01T00:40:05;3.58;;;2.40;;
43048;SDS011;28673;44.412;11.918;2023-04-01T00:42:32;5.00;;;3.42;;
43048;SDS011;28673;44.412;11.918;2023-04-01T00:44:58;3.75;;;2.47;;
43048;SDS011;28673;44.412;11.918;2023-04-01T00:47:56;4.43;;;2.80;;
43048;SDS011;28673;44.412;11.918;2023-04-01T00:50:25;7.15;;;3.50;;
43048;SDS011;28673;44.412;11.918;2023-04-01T00:52:54;4.15;;;2.70;;
43048;SDS011;28673;44.412;11.918;2023-04-01T00:55:20;4.43;;;3.00;;
43048;SDS011;28673;44.412;11.918;2023-04-01T00:57:48;5.72;;;3.10;;
43048;SDS011;28673;44.412;11.918;2023-04-01T01:00:18;5.40;;;3.53;;
43048;SDS011;28673;44.412;11.918;2023-04-01T01:02:45;6.03;;;3.25;;
43048;SDS011;28673;44.412;11.918;2023-04-01T01:05:12;8.88;;;4.25;;
43048;SDS011;28673;44.412;11.918;2023-04-01T01:10:57;9.43;;;5.43;;
43048;SDS011;28673;44.412;11.918;2023-04-01T01:13:30;8.30;;;4.60;;
43048;SDS011;28673;44.412;11.918;2023-04-01T01:16:42;6.47;;;3.58;;
43048;SDS011;28673;44.412;11.918;2023-04-01T01:25:32;6.45;;;3.90;;
43048;SDS011;28673;44.412;11.918;2023-04-01T01:33:25;4.07;;;3.58;;
43048;SDS011;28673;44.412;11.918;2023-04-01T01:36:08;7.55;;;3.58;;
43048;SDS011;28673;44.412;11.918;2023-04-01T01:38:38;8.80;;;3.08;;
43048;SDS011;28673;44.412;11.918;2023-04-01T01:41:04;6.60;;;3.88;;
43048;SDS011;28673;44.412;11.918;2023-04-01T01:43:33;5.95;;;3.50;;
43048;SDS011;28673;44.412;11.918;2023-04-01T01:46:09;4.82;;;3.20;;
43048;SDS011;28673;44.412;11.918;2023-04-01T01:51:06;3.33;;;2.67;;
43048;SDS011;28673;44.412;11.918;2023-04-01T01:53:33;7.13;;;4.15;;
43048;SDS011;28673;44.412;11.918;2023-04-01T01:55:59;7.05;;;3.13;;
43048;SDS011;28673;44.412;11.918;2023-04-01T01:58:38;4.45;;;2.88;;
43048;SDS011;28673;44.412;11.918;2023-04-01T02:01:12;4.38;;;3.25;;
43048;SDS011;28673;44.412;11.918;2023-04-01T02:03:42;6.57;;;2.50;;
43048;SDS011;28673;44.412;11.918;2023-04-01T02:06:11;3.83;;;3.00;;
43048;SDS011;28673;44.412;11.918;2023-04-01T02:11:19;4.85;;;3.10;;
43048;SDS011;28673;44.412;11.918;2023-04-01T02:16:25;5.47;;;3.40;;
43048;SDS011;28673;44.412;11.918;2023-04-01T02:18:56;7.35;;;3.85;;
43048;SDS011;28673;44.412;11.918;2023-04-01T02:21:26;5.22;;;3.33;;
43048;SDS011;28673;44.412;11.918;2023-04-01T02:23:56;8.07;;;3.45;;
43048;SDS011;28673;44.412;11.918;2023-04-01T02:26:24;4.97;;;3.60;;
43048;SDS011;28673;44.412;11.918;2023-04-01T02:28:52;6.07;;;3.83;;
43048;SDS011;28673;44.412;11.918;2023-04-01T02:31:21;8.18;;;4.60;;
43048;SDS011;28673;44.412;11.918;2023-04-01T02:33:49;9.07;;;5.00;;
43048;SDS011;28673;44.412;11.918;2023-04-01T02:36:15;10.70;;;5.57;;
43048;SDS011;28673;44.412;11.918;2023-04-01T02:38:43;5.50;;;4.18;;
43048;SDS011;28673;44.412;11.918;2023-04-01T02:41:10;7.25;;;5.10;;
43048;SDS011;28673;44.412;11.918;2023-04-01T02:43:36;7.35;;;5.05;;
43048;SDS011;28673;44.412;11.918;2023-04-01T02:46:02;8.88;;;6.07;;
43048;SDS011;28673;44.412;11.918;2023-04-01T02:48:28;12.25;;;6.05;;
43048;SDS011;28673;44.412;11.918;2023-04-01T02:50:55;12.65;;;6.30;;
43048;SDS011;28673;44.412;11.918;2023-04-01T02:53:21;13.35;;;7.35;;
43048;SDS011;28673;44.412;11.918;2023-04-01T02:55:47;14.07;;;6.50;;
43048;SDS011;28673;44.412;11.918;2023-04-01T02:58:17;7.93;;;5.25;;
43048;SDS011;28673;44.412;11.918;2023-04-01T03:00:43;10.57;;;6.18;;
43048;SDS011;28673;44.412;11.918;2023-04-01T03:03:09;11.63;;;6.85;;
43048;SDS011;28673;44.412;11.918;2023-04-01T03:05:35;9.75;;;6.70;;
43048;SDS011;28673;44.412;11.918;2023-04-01T03:08:01;19.42;;;7.32;;
43048;SDS011;28673;44.412;11.918;2023-04-01T03:10:27;9.93;;;7.38;;
43048;SDS011;28673;44.412;11.918;2023-04-01T03:12:53;14.10;;;8.05;;
43048;SDS011;28673;44.412;11.918;2023-04-01T03:15:19;11.10;;;7.28;;
43048;SDS011;28673;44.412;11.918;2023-04-01T03:17:45;13.52;;;6.72;;
43048;SDS011;28673;44.412;11.918;2023-04-01T03:20:12;14.82;;;7.10;;
43048;SDS011;28673;44.412;11.918;2023-04-01T03:22:38;9.95;;;6.57;;
43048;SDS011;28673;44.412;11.918;2023-04-01T03:25:05;14.27;;;8.98;;
43048;SDS011;28673;44.412;11.918;2023-04-01T03:27:33;9.63;;;7.15;;
43048;SDS011;28673;44.412;11.918;2023-04-01T03:30:00;11.40;;;6.95;;
43048;SDS011;28673;44.412;11.918;2023-04-01T03:32:28;13.27;;;7.38;;
43048;SDS011;28673;44.412;11.918;2023-04-01T03:34:54;10.23;;;7.90;;
43048;SDS011;28673;44.412;11.918;2023-04-01T03:37:20;11.75;;;7.00;;
43048;SDS011;28673;44.412;11.918;2023-04-01T03:39:46;12.90;;;8.07;;
43048;SDS011;28673;44.412;11.918;2023-04-01T03:42:12;17.35;;;7.65;;
43048;SDS011;28673;44.412;11.918;2023-04-01T03:44:38;14.73;;;8.43;;
43048;SDS011;28673;44.412;11.918;2023-04-01T03:47:04;14.27;;;7.50;;
43048;SDS011;28673;44.412;11.918;2023-04-01T03:49:30;19.25;;;8.50;;
43048;SDS011;28673;44.412;11.918;2023-04-01T03:51:57;13.77;;;7.80;;
43048;SDS011;28673;44.412;11.918;2023-04-01T03:54:23;15.85;;;8.65;;
43048;SDS011;28673;44.412;11.918;2023-04-01T03:56:49;16.52;;;9.10;;
43048;SDS011;28673;44.412;11.918;2023-04-01T03:59:15;15.98;;;9.20;;
43048;SDS011;28673;44.412;11.918;2023-04-01T04:01:41;12.40;;;8.25;;
43048;SDS011;28673;44.412;11.918;2023-04-01T04:04:07;19.00;;;10.10;;
43048;SDS011;28673;44.412;11.918;2023-04-01T04:06:35;15.27;;;8.88;;
43048;SDS011;28673;44.412;11.918;2023-04-01T04:09:01;16.83;;;9.27;;
43048;SDS011;28673;44.412;11.918;2023-04-01T04:11:30;18.00;;;8.38;;
43048;SDS011;28673;44.412;11.918;2023-04-01T04:13:57;12.80;;;7.75;;
43048;SDS011;28673;44.412;11.918;2023-04-01T04:16:22;10.85;;;7.88;;
43048;SDS011;28673;44.412;11.918;2023-04-01T04:18:55;12.45;;;8.50;;
43048;SDS011;28673;44.412;11.918;2023-04-01T04:21:21;14.75;;;8.43;;
43048;SDS011;28673;44.412;11.918;2023-04-01T04:23:46;15.43;;;9.07;;
43048;SDS011;28673;44.412;11.918;2023-04-01T04:26:15;15.48;;;9.27;;
43048;SDS011;28673;44.412;11.918;2023-04-01T04:28:45;13.82;;;9.00;;
43048;SDS011;28673;44.412;11.918;2023-04-01T04:31:17;13.80;;;8.35;;
43048;SDS011;28673;44.412;11.918;2023-04-01T04:33:49;21.40;;;9.73;;
43048;SDS011;28673;44.412;11.918;2023-04-01T04:36:17;16.38;;;10.75;;
43048;SDS011;28673;44.412;11.918;2023-04-01T04:38:43;18.58;;;8.68;;
43048;SDS011;28673;44.412;11.918;2023-04-01T04:41:10;14.80;;;9.77;;
43048;SDS011;28673;44.412;11.918;2023-04-01T04:43:42;18.25;;;9.80;;
43048;SDS011;28673;44.412;11.918;2023-04-01T04:46:15;18.65;;;9.80;;
43048;SDS011;28673;44.412;11.918;2023-04-01T04:48:41;20.30;;;11.13;;
43048;SDS011;28673;44.412;11.918;2023-04-01T04:51:12;16.23;;;11.05;;
43048;SDS011;28673;44.412;11.918;2023-04-01T04:53:39;22.05;;;11.43;;
43048;SDS011;28673;44.412;11.918;2023-04-01T04:56:05;16.77;;;11.43;;
43048;SDS011;28673;44.412;11.918;2023-04-01T04:58:42;23.33;;;12.32;;
43048;SDS011;28673;44.412;11.918;2023-04-01T05:01:14;24.63;;;14.60;;
43048;SDS011;28673;44.412;11.918;2023-04-01T05:03:42;23.20;;;13.27;;
43048;SDS011;28673;44.412;11.918;2023-04-01T05:06:09;27.98;;;14.02;;
43048;SDS011;28673;44.412;11.918;2023-04-01T05:08:37;22.63;;;15.30;;
43048;SDS011;28673;44.412;11.918;2023-04-01T05:11:06;23.70;;;16.55;;
43048;SDS011;28673;44.412;11.918;2023-04-01T05:13:36;21.25;;;13.40;;
43048;SDS011;28673;44.412;11.918;2023-04-01T05:16:02;35.28;;;15.35;;
43048;SDS011;28673;44.412;11.918;2023-04-01T05:18:28;25.50;;;14.00;;
43048;SDS011;28673;44.412;11.918;2023-04-01T05:21:03;25.92;;;16.00;;
43048;SDS011;28673;44.412;11.918;2023-04-01T05:23:32;30.73;;;16.45;;
43048;SDS011;28673;44.412;11.918;2023-04-01T05:25:58;24.85;;;14.77;;
43048;SDS011;28673;44.412;11.918;2023-04-01T05:28:27;29.65;;;15.80;;
43048;SDS011;28673;44.412;11.918;2023-04-01T05:30:53;21.25;;;14.13;;
43048;SDS011;28673;44.412;11.918;2023-04-01T05:33:22;21.48;;;14.45;;
43048;SDS011;28673;44.412;11.918;2023-04-01T05:35:48;24.58;;;14.13;;
43048;SDS011;28673;44.412;11.918;2023-04-01T05:38:14;27.48;;;17.13;;
43048;SDS011;28673;44.412;11.918;2023-04-01T05:40:40;24.50;;;16.95;;
43048;SDS011;28673;44.412;11.918;2023-04-01T05:43:06;29.13;;;16.02;;
43048;SDS011;28673;44.412;11.918;2023-04-01T05:45:32;26.52;;;17.05;;
43048;SDS011;28673;44.412;11.918;2023-04-01T05:47:58;30.27;;;17.13;;
43048;SDS011;28673;44.412;11.918;2023-04-01T05:50:27;25.73;;;17.33;;
43048;SDS011;28673;44.412;11.918;2023-04-01T05:52:53;32.10;;;16.33;;
43048;SDS011;28673;44.412;11.918;2023-04-01T05:55:21;32.30;;;17.63;;
43048;SDS011;28673;44.412;11.918;2023-04-01T05:57:49;24.13;;;17.05;;
43048;SDS011;28673;44.412;11.918;2023-04-01T06:00:17;33.95;;;17.75;;
43048;SDS011;28673;44.412;11.918;2023-04-01T06:02:45;35.00;;;17.60;;
43048;SDS011;28673;44.412;11.918;2023-04-01T06:05:13;30.05;;;18.55;;
43048;SDS011;28673;44.412;11.918;2023-04-01T06:10:13;31.65;;;17.27;;
43048;SDS011;28673;44.412;11.918;2023-04-01T06:21:27;33.08;;;19.35;;
43048;SDS011;28673;44.412;11.918;2023-04-01T06:24:24;24.70;;;15.20;;
43048;SDS011;28673;44.412;11.918;2023-04-01T06:27:16;23.75;;;14.65;;
43048;SDS011;28673;44.412;11.918;2023-04-01T06:32:57;29.67;;;11.77;;
43048;SDS011;28673;44.412;11.918;2023-04-01T06:35:41;20.48;;;10.73;;
43048;SDS011;28673;44.412;11.918;2023-04-01T06:38:49;18.40;;;8.88;;
43048;SDS011;28673;44.412;11.918;2023-04-01T06:41:39;26.75;;;9.60;;
43048;SDS011;28673;44.412;11.918;2023-04-01T06:44:52;18.10;;;8.40;;
43048;SDS011;28673;44.412;11.918;2023-04-01T06:48:15;11.95;;;6.45;;
43048;SDS011;28673;44.412;11.918;2023-04-01T06:54:16;11.75;;;6.60;;
43048;SDS011;28673;44.412;11.918;2023-04-01T06:57:08;14.30;;;9.00;;
43048;SDS011;28673;44.412;11.918;2023-04-01T07:00:00;13.00;;;6.35;;
43048;SDS011;28673;44.412;11.918;2023-04-01T07:02:34;12.23;;;6.57;;
43048;SDS011;28673;44.412;11.918;2023-04-01T07:05:34;11.85;;;5.72;;
43048;SDS011;28673;44.412;11.918;2023-04-01T07:08:03;12.63;;;7.20;;
43048;SDS011;28673;44.412;11.918;2023-04-01T07:10:37;10.93;;;7.18;;
43048;SDS011;28673;44.412;11.918;2023-04-01T07:13:34;14.88;;;7.10;;
43048;SDS011;28673;44.412;11.918;2023-04-01T07:16:24;9.68;;;7.22;;
43048;SDS011;28673;44.412;11.918;2023-04-01T07:18:54;16.50;;;7.72;;
43048;SDS011;28673;44.412;11.918;2023-04-01T07:21:44;13.15;;;7.18;;
43048;SDS011;28673;44.412;11.918;2023-04-01T07:24:26;19.35;;;7.55;;
43048;SDS011;28673;44.412;11.918;2023-04-01T07:27:10;12.43;;;8.25;;
43048;SDS011;28673;44.412;11.918;2023-04-01T07:29:38;10.95;;;7.07;;
43048;SDS011;28673;44.412;11.918;2023-04-01T07:40:46;17.27;;;7.57;;
43048;SDS011;28673;44.412;11.918;2023-04-01T07:54:50;18.48;;;8.57;;
43048;SDS011;28673;44.412;11.918;2023-04-01T07:57:39;17.23;;;9.35;;
43048;SDS011;28673;44.412;11.918;2023-04-01T08:00:37;19.05;;;10.90;;
43048;SDS011;28673;44.412;11.918;2023-04-01T08:04:08;13.90;;;9.55;;
43048;SDS011;28673;44.412;11.918;2023-04-01T08:06:14;22.65;;;10.32;;
43048;SDS011;28673;44.412;11.918;2023-04-01T08:08:56;18.80;;;9.43;;
43048;SDS011;28673;44.412;11.918;2023-04-01T08:21:12;18.90;;;9.17;;
43048;SDS011;28673;44.412;11.918;2023-04-01T08:23:46;18.02;;;9.38;;
43048;SDS011;28673;44.412;11.918;2023-04-01T08:26:30;11.85;;;8.70;;
43048;SDS011;28673;44.412;11.918;2023-04-01T08:29:26;19.38;;;8.25;;
43048;SDS011;28673;44.412;11.918;2023-04-01T08:32:15;16.48;;;9.40;;
43048;SDS011;28673;44.412;11.918;2023-04-01T08:34:57;10.20;;;7.35;;
43048;SDS011;28673;44.412;11.918;2023-04-01T08:37:39;13.40;;;7.93;;
43048;SDS011;28673;44.412;11.918;2023-04-01T08:57:04;10.88;;;7.65;;
43048;SDS011;28673;44.412;11.918;2023-04-01T09:11:21;11.75;;;8.50;;
43048;SDS011;28673;44.412;11.918;2023-04-01T09:36:01;12.00;;;7.88;;
43048;SDS011;28673;44.412;11.918;2023-04-01T09:41:28;11.67;;;6.83;;
43048;SDS011;28673;44.412;11.918;2023-04-01T09:52:44;8.40;;;5.18;;
43048;SDS011;28673;44.412;11.918;2023-04-01T10:02:13;12.55;;;4.50;;
43048;SDS011;28673;44.412;11.918;2023-04-01T10:05:22;6.53;;;5.03;;
43048;SDS011;28673;44.412;11.918;2023-04-01T10:08:43;8.68;;;4.25;;
43048;SDS011;28673;44.412;11.918;2023-04-01T10:17:34;7.07;;;3.55;;
43048;SDS011;28673;44.412;11.918;2023-04-01T10:40:31;6.00;;;2.33;;
43048;SDS011;28673;44.412;11.918;2023-04-01T11:13:58;3.97;;;2.30;;
43048;SDS011;28673;44.412;11.918;2023-04-01T11:16:54;9.40;;;2.60;;
43048;SDS011;28673;44.412;11.918;2023-04-01T11:22:41;3.70;;;2.85;;
43048;SDS011;28673;44.412;11.918;2023-04-01T11:31:00;6.10;;;2.70;;
43048;SDS011;28673;44.412;11.918;2023-04-01T11:33:43;4.90;;;2.90;;
43048;SDS011;28673;44.412;11.918;2023-04-01T11:45:35;6.07;;;3.17;;
43048;SDS011;28673;44.412;11.918;2023-04-01T11:51:39;4.40;;;3.10;;
43048;SDS011;28673;44.412;11.918;2023-04-01T12:10:38;5.20;;;2.88;;
43048;SDS011;28673;44.412;11.918;2023-04-01T12:15:43;5.38;;;3.15;;
43048;SDS011;28673;44.412;11.918;2023-04-01T12:18:20;13.93;;;4.03;;
43048;SDS011;28673;44.412;11.918;2023-04-01T12:26:31;5.32;;;2.55;;
43048;SDS011;28673;44.412;11.918;2023-04-01T12:40:45;3.80;;;3.03;;
43048;SDS011;28673;44.412;11.918;2023-04-01T12:46:16;5.32;;;3.08;;
43048;SDS011;28673;44.412;11.918;2023-04-01T12:48:56;4.13;;;2.40;;
43048;SDS011;28673;44.412;11.918;2023-04-01T12:57:23;4.85;;;3.00;;
43048;SDS011;28673;44.412;11.918;2023-04-01T13:03:05;7.20;;;2.35;;
43048;SDS011;28673;44.412;11.918;2023-04-01T13:14:13;3.85;;;2.22;;
43048;SDS011;28673;44.412;11.918;2023-04-01T13:17:10;5.55;;;2.90;;
43048;SDS011;28673;44.412;11.918;2023-04-01T13:22:25;3.40;;;2.55;;
43048;SDS011;28673;44.412;11.918;2023-04-01T13:25:04;12.38;;;2.22;;
43048;SDS011;28673;44.412;11.918;2023-04-01T13:27:41;8.98;;;2.50;;
43048;SDS011;28673;44.412;11.918;2023-04-01T13:32:47;3.22;;;2.03;;
43048;SDS011;28673;44.412;11.918;2023-04-01T13:41:18;45.70;;;34.58;;
43048;SDS011;28673;44.412;11.918;2023-04-01T13:43:49;5.97;;;2.92;;
43048;SDS011;28673;44.412;11.918;2023-04-01T14:17:56;5.10;;;2.50;;
43048;SDS011;28673;44.412;11.918;2023-04-01T14:20:46;2.30;;;1.83;;
43048;SDS011;28673;44.412;11.918;2023-04-01T14:38:22;3.60;;;2.13;;
43048;SDS011;28673;44.412;11.918;2023-04-01T14:41:06;7.38;;;1.75;;
43048;SDS011;28673;44.412;11.918;2023-04-01T14:46:34;3.20;;;1.95;;
43048;SDS011;28673;44.412;11.918;2023-04-01T14:49:14;2.97;;;1.88;;
43048;SDS011;28673;44.412;11.918;2023-04-01T14:51:40;3.45;;;1.77;;
43048;SDS011;28673;44.412;11.918;2023-04-01T14:57:09;3.72;;;1.58;;
43048;SDS011;28673;44.412;11.918;2023-04-01T15:00:27;7.18;;;2.67;;
43048;SDS011;28673;44.412;11.918;2023-04-01T15:19:17;6.45;;;1.48;;
43048;SDS011;28673;44.412;11.918;2023-04-01T15:22:07;3.25;;;1.60;;
43048;SDS011;28673;44.412;11.918;2023-04-01T15:33:39;2.90;;;1.48;;
43048;SDS011;28673;44.412;11.918;2023-04-01T15:36:31;2.42;;;1.45;;
43048;SDS011;28673;44.412;11.918;2023-04-01T15:41:40;3.33;;;1.77;;
43048;SDS011;28673;44.412;11.918;2023-04-01T15:47:55;4.63;;;1.90;;
43048;SDS011;28673;44.412;11.918;2023-04-01T15:50:28;4.35;;;1.67;;
43048;SDS011;28673;44.412;11.918;2023-04-01T15:53:15;4.80;;;2.65;;
43048;SDS011;28673;44.412;11.918;2023-04-01T16:04:28;12.05;;;4.78;;
43048;SDS011;28673;44.412;11.918;2023-04-01T16:07:23;9.98;;;2.35;;
43048;SDS011;28673;44.412;11.918;2023-04-01T16:10:22;7.25;;;2.85;;
43048;SDS011;28673;44.412;11.918;2023-04-01T16:13:45;6.63;;;2.67;;
43048;SDS011;28673;44.412;11.918;2023-04-01T16:19:13;7.68;;;2.70;;
43048;SDS011;28673;44.412;11.918;2023-04-01T16:27:42;5.78;;;1.92;;
43048;SDS011;28673;44.412;11.918;2023-04-01T16:30:35;12.25;;;3.08;;
43048;SDS011;28673;44.412;11.918;2023-04-01T16:38:46;2.60;;;1.10;;
43048;SDS011;28673;44.412;11.918;2023-04-01T16:41:27;6.55;;;0.98;;
43048;SDS011;28673;44.412;11.918;2023-04-01T16:44:08;4.15;;;1.08;;
43048;SDS011;28673;44.412;11.918;2023-04-01T16:46:44;2.88;;;1.00;;
43048;SDS011;28673;44.412;11.918;2023-04-01T16:49:24;3.20;;;1.10;;
43048;SDS011;28673;44.412;11.918;2023-04-01T17:02:36;5.25;;;1.42;;
43048;SDS011;28673;44.412;11.918;2023-04-01T17:05:09;4.72;;;1.48;;
43048;SDS011;28673;44.412;11.918;2023-04-01T17:07:46;4.22;;;1.70;;
43048;SDS011;28673;44.412;11.918;2023-04-01T17:15:56;5.22;;;1.83;;
43048;SDS011;28673;44.412;11.918;2023-04-01T17:24:29;5.30;;;2.22;;
43048;SDS011;28673;44.412;11.918;2023-04-01T17:27:26;6.18;;;2.15;;
43048;SDS011;28673;44.412;11.918;2023-04-01T17:30:28;4.65;;;1.60;;
43048;SDS011;28673;44.412;11.918;2023-04-01T17:35:43;2.75;;;1.40;;
43048;SDS011;28673;44.412;11.918;2023-04-01T17:49:01;5.43;;;1.40;;
43048;SDS011;28673;44.412;11.918;2023-04-01T17:59:56;11.32;;;5.75;;
43048;SDS011;28673;44.412;11.918;2023-04-01T18:02:41;12.68;;;5.55;;
43048;SDS011;28673;44.412;11.918;2023-04-01T18:10:24;8.82;;;5.13;;
43048;SDS011;28673;44.412;11.918;2023-04-01T18:18:32;10.38;;;3.78;;
43048;SDS011;28673;44.412;11.918;2023-04-01T18:21:06;11.23;;;4.22;;
43048;SDS011;28673;44.412;11.918;2023-04-01T18:23:39;6.43;;;2.80;;
43048;SDS011;28673;44.412;11.918;2023-04-01T18:26:32;8.82;;;3.45;;
43048;SDS011;28673;44.412;11.918;2023-04-01T18:37:25;6.47;;;2.83;;
43048;SDS011;28673;44.412;11.918;2023-04-01T18:40:01;8.40;;;2.47;;
43048;SDS011;28673;44.412;11.918;2023-04-01T18:45:40;7.40;;;3.25;;
43048;SDS011;28673;44.412;11.918;2023-04-01T18:48:35;5.82;;;2.88;;
43048;SDS011;28673;44.412;11.918;2023-04-01T18:51:20;5.20;;;3.10;;
43048;SDS011;28673;44.412;11.918;2023-04-01T18:54:19;5.88;;;2.35;;
43048;SDS011;28673;44.412;11.918;2023-04-01T18:57:13;3.55;;;2.53;;
43048;SDS011;28673;44.412;11.918;2023-04-01T18:59:42;4.50;;;2.08;;
43048;SDS011;28673;44.412;11.918;2023-04-01T19:02:19;16.42;;;4.80;;
43048;SDS011;28673;44.412;11.918;2023-04-01T19:04:56;10.85;;;4.38;;
43048;SDS011;28673;44.412;11.918;2023-04-01T19:07:39;11.27;;;5.07;;
43048;SDS011;28673;44.412;11.918;2023-04-01T19:13:16;9.65;;;3.08;;
43048;SDS011;28673;44.412;11.918;2023-04-01T19:16:03;7.25;;;2.20;;
43048;SDS011;28673;44.412;11.918;2023-04-01T19:19:04;9.63;;;2.38;;
43048;SDS011;28673;44.412;11.918;2023-04-01T19:30:01;10.80;;;2.67;;
43048;SDS011;28673;44.412;11.918;2023-04-01T19:36:35;8.88;;;2.90;;
43048;SDS011;28673;44.412;11.918;2023-04-01T19:47:15;8.68;;;2.33;;
43048;SDS011;28673;44.412;11.918;2023-04-01T19:49:49;9.88;;;2.60;;
43048;SDS011;28673;44.412;11.918;2023-04-01T19:52:33;9.20;;;2.83;;
43048;SDS011;28673;44.412;11.918;2023-04-01T19:55:46;13.75;;;2.20;;
43048;SDS011;28673;44.412;11.918;2023-04-01T20:14:01;9.48;;;2.20;;
43048;SDS011;28673;44.412;11.918;2023-04-01T20:16:43;8.60;;;3.15;;
43048;SDS011;28673;44.412;11.918;2023-04-01T20:19:28;7.22;;;2.33;;
43048;SDS011;28673;44.412;11.918;2023-04-01T20:21:56;10.43;;;3.35;;
43048;SDS011;28673;44.412;11.918;2023-04-01T20:25:27;11.63;;;3.08;;
43048;SDS011;28673;44.412;11.918;2023-04-01T20:27:33;12.52;;;2.85;;
43048;SDS011;28673;44.412;11.918;2023-04-01T20:30:25;18.25;;;3.72;;
43048;SDS011;28673;44.412;11.918;2023-04-01T20:42:23;7.40;;;1.98;;
43048;SDS011;28673;44.412;11.918;2023-04-01T20:45:14;11.70;;;1.88;;
43048;SDS011;28673;44.412;11.918;2023-04-01T20:51:05;16.58;;;1.83;;
43048;SDS011;28673;44.412;11.918;2023-04-01T20:53:42;8.07;;;2.33;;
43048;SDS011;28673;44.412;11.918;2023-04-01T21:09:47;10.80;;;2.75;;
43048;SDS011;28673;44.412;11.918;2023-04-01T21:29:36;13.10;;;2.95;;
43048;SDS011;28673;44.412;11.918;2023-04-01T21:32:31;10.43;;;2.65;;
43048;SDS011;28673;44.412;11.918;2023-04-01T21:40:54;16.55;;;4.28;;
43048;SDS011;28673;44.412;11.918;2023-04-01T21:43:29;14.45;;;2.50;;
43048;SDS011;28673;44.412;11.918;2023-04-01T22:00:53;8.35;;;2.38;;
43048;SDS011;28673;44.412;11.918;2023-04-01T22:03:40;8.82;;;3.28;;
43048;SDS011;28673;44.412;11.918;2023-04-01T22:06:31;16.50;;;2.85;;
43048;SDS011;28673;44.412;11.918;2023-04-01T22:09:05;7.97;;;2.33;;
43048;SDS011;28673;44.412;11.918;2023-04-01T22:17:32;9.48;;;2.20;;
43048;SDS011;28673;44.412;11.918;2023-04-01T22:25:43;9.63;;;2.90;;
43048;SDS011;28673;44.412;11.918;2023-04-01T22:31:02;14.93;;;3.05;;
43048;SDS011;28673;44.412;11.918;2023-04-01T22:33:43;13.30;;;3.90;;
43048;SDS011;28673;44.412;11.918;2023-04-01T22:36:22;17.83;;;2.75;;
43048;SDS011;28673;44.412;11.918;2023-04-01T22:38:56;11.68;;;2.15;;
43048;SDS011;28673;44.412;11.918;2023-04-01T22:41:52;5.60;;;2.03;;
43048;SDS011;28673;44.412;11.918;2023-04-01T22:45:02;18.52;;;3.17;;
43048;SDS011;28673;44.412;11.918;2023-04-01T22:47:30;10.52;;;3.22;;
43048;SDS011;28673;44.412;11.918;2023-04-01T22:50:18;19.45;;;2.90;;
43048;SDS011;28673;44.412;11.918;2023-04-01T22:52:50;4.80;;;1.83;;
43048;SDS011;28673;44.412;11.918;2023-04-01T22:55:40;14.27;;;2.92;;
43048;SDS011;28673;44.412;11.918;2023-04-01T23:00:47;5.90;;;1.63;;
43048;SDS011;28673;44.412;11.918;2023-04-01T23:03:19;13.65;;;3.00;;
43048;SDS011;28673;44.412;11.918;2023-04-01T23:05:57;15.77;;;2.78;;
43048;SDS011;28673;44.412;11.918;2023-04-01T23:11:11;16.02;;;2.58;;
43048;SDS011;28673;44.412;11.918;2023-04-01T23:19:29;11.70;;;2.75;;
43048;SDS011;28673;44.412;11.918;2023-04-01T23:22:28;9.45;;;2.20;;
43048;SDS011;28673;44.412;11.918;2023-04-01T23:25:18;10.90;;;2.67;;
43048;SDS011;28673;44.412;11.918;2023-04-01T23:35:56;8.38;;;2.03;;
43048;SDS011;28673;44.412;11.918;2023-04-01T23:38:32;14.48;;;2.50;;
43048;SDS011;28673;44.412;11.918;2023-04-01T23:41:19;10.52;;;3.78;;
43048;SDS011;28673;44.412;11.918;2023-04-01T23:43:57;8.35;;;2.00;;
43048;SDS011;28673;44.412;11.918;2023-04-01T23:46:25;11.25;;;2.60;;
43048;SDS011;28673;44.412;11.918;2023-04-01T23:48:53;7.15;;;3.22;;
43048;SDS011;28673;44.412;11.918;2023-04-01T23:51:27;14.43;;;2.38;;
43048;SDS011;28673;44.412;11.918;2023-04-01T23:54:11;9.18;;;2.08;;
43048;SDS011;28673;44.412;11.918;2023-04-01T23:56:45;8.37;;;2.17;;
43048;SDS011;28673;44.412;11.918;2023-04-01T23:59:16;11.90;;;2.90;;
